sensor_id;sensor_type;location;lat;lon;timestamp;P1;durP1;ratioP1;P2;durP2;ratioP2
75755;SDS011;64369;58.008;56.186;2022-10-15T05:55:21;8.63;;;6.13;;
75755;SDS011;64369;58.008;56.186;2022-10-15T05:57:48;11.80;;;7.35;;
75755;SDS011;64369;58.008;56.186;2022-10-15T08:53:02;8.73;;;5.45;;
75755;SDS011;64369;58.008;56.186;2022-10-15T08:53:37;8.65;;;5.22;;
75755;SDS011;64369;58.008;56.186;2022-10-15T08:54:19;7.30;;;5.43;;
75755;SDS011;64369;58.008;56.186;2022-10-15T08:55:26;7.55;;;5.20;;
75755;SDS011;64369;58.008;56.186;2022-10-15T08:56:11;7.20;;;4.97;;
75755;SDS011;64369;58.008;56.186;2022-10-15T08:57:13;7.63;;;4.50;;
75755;SDS011;64369;58.008;56.186;2022-10-15T09:00:24;7.95;;;5.22;;
75755;SDS011;64369;58.008;56.186;2022-10-15T09:01:10;9.15;;;5.28;;
75755;SDS011;64369;58.008;56.186;2022-10-15T09:04:13;7.90;;;5.53;;
75755;SDS011;64369;58.008;56.186;2022-10-15T09:06:20;9.70;;;5.75;;
75755;SDS011;64369;58.008;56.186;2022-10-15T09:07:08;9.20;;;5.22;;
75755;SDS011;64369;58.008;56.186;2022-10-15T09:07:51;10.70;;;5.30;;
75755;SDS011;64369;58.008;56.186;2022-10-15T09:09:55;8.05;;;5.32;;
75755;SDS011;64369;58.008;56.186;2022-10-15T09:10:54;7.88;;;4.70;;
75755;SDS011;64369;58.008;56.186;2022-10-15T09:13:48;7.57;;;5.68;;
75755;SDS011;64369;58.008;56.186;2022-10-15T09:14:03;7.63;;;4.82;;
75755;SDS011;64369;58.008;56.186;2022-10-15T09:14:43;8.00;;;6.00;;
75755;SDS011;64369;58.008;56.186;2022-10-15T09:15:19;9.73;;;5.47;;
75755;SDS011;64369;58.008;56.186;2022-10-15T09:16:04;8.23;;;5.53;;
75755;SDS011;64369;58.008;56.186;2022-10-15T09:17:56;12.50;;;5.80;;
75755;SDS011;64369;58.008;56.186;2022-10-15T09:18:32;10.27;;;6.03;;
75755;SDS011;64369;58.008;56.186;2022-10-15T09:19:16;8.02;;;5.45;;
75755;SDS011;64369;58.008;56.186;2022-10-15T09:19:54;10.10;;;5.65;;
75755;SDS011;64369;58.008;56.186;2022-10-15T09:20:34;7.47;;;5.72;;
75755;SDS011;64369;58.008;56.186;2022-10-15T09:21:10;8.15;;;5.75;;
75755;SDS011;64369;58.008;56.186;2022-10-15T09:21:44;13.02;;;6.05;;
75755;SDS011;64369;58.008;56.186;2022-10-15T09:22:24;9.50;;;6.65;;
75755;SDS011;64369;58.008;56.186;2022-10-15T09:23:00;9.43;;;6.47;;
75755;SDS011;64369;58.008;56.186;2022-10-15T09:23:32;8.73;;;6.68;;
75755;SDS011;64369;58.008;56.186;2022-10-15T09:24:08;10.05;;;6.00;;
75755;SDS011;64369;58.008;56.186;2022-10-15T09:24:46;8.23;;;6.25;;
75755;SDS011;64369;58.008;56.186;2022-10-15T09:25:20;9.70;;;6.18;;
75755;SDS011;64369;58.008;56.186;2022-10-15T09:26:18;13.40;;;6.82;;
75755;SDS011;64369;58.008;56.186;2022-10-15T09:27:07;10.10;;;6.35;;
75755;SDS011;64369;58.008;56.186;2022-10-15T09:27:55;9.20;;;6.18;;
75755;SDS011;64369;58.008;56.186;2022-10-15T09:31:22;9.35;;;5.57;;
75755;SDS011;64369;58.008;56.186;2022-10-15T09:32:17;8.10;;;5.38;;
75755;SDS011;64369;58.008;56.186;2022-10-15T09:33:50;6.93;;;5.22;;
75755;SDS011;64369;58.008;56.186;2022-10-15T09:34:27;8.82;;;4.60;;
75755;SDS011;64369;58.008;56.186;2022-10-15T09:35:55;6.50;;;4.95;;
75755;SDS011;64369;58.008;56.186;2022-10-15T09:37:02;6.72;;;4.82;;
75755;SDS011;64369;58.008;56.186;2022-10-15T09:38:00;6.20;;;4.70;;
75755;SDS011;64369;58.008;56.186;2022-10-15T09:42:10;12.18;;;4.50;;
75755;SDS011;64369;58.008;56.186;2022-10-15T09:43:05;8.45;;;4.65;;
75755;SDS011;64369;58.008;56.186;2022-10-15T09:43:42;8.52;;;5.18;;
75755;SDS011;64369;58.008;56.186;2022-10-15T09:44:20;7.20;;;4.93;;
